KLFI/LFI METAR and TAF weather

Enter ICAO airport designator
Station Type Date Time Source
KLFI METAR 2020/09/26 21:41 UTC NOAA

KLFI 262141Z AUTO 02004KT 9SM OVC010 22/22 A2996 RMK AO2 CIG 008V010 CIG 009 RWY08 SLP152 $


Station Type Date Time Source
KLFI Decoded METAR 2020/09/26 21:41 UTC NOAA

Langley Air Force Base, VA, United States (KLFI) 37-05N 076-21W 6M
Sep 26, 2020 - 05:41 PM EDT / 2020.09.26 2141 UTC
Wind: from the NNE (020 degrees) at 5 MPH (4 KT):0
Visibility: 9 mile(s):0
Sky conditions: overcast
Temperature: 71 F (22 C)
Dew Point: 71 F (22 C)
Relative Humidity: 100%
Pressure (altimeter): 29.96 in. Hg (1014 hPa)
ob: KLFI 262141Z AUTO 02004KT 9SM OVC010 22/22 A2996 RMK AO2 CIG 008V010 CIG 009 RWY08 SLP152
cycle: 21

Station Type Date Time Source
KLFI TAF 2020/09/26 18:13 UTC NOAA

TAF
AMD KLFI 261801Z 2618/2723 11009KT 8000 BR FEW011 SCT020 BKN030 BKN095 QNH2993INS
TEMPO 2618/2623 3200 -SHRA SCT006 BKN011 OVC020
BECMG 2623/2624 VRB06KT 4800 -DZ OVC004 QNH2990INS
BECMG 2717/2718 VRB06KT 9999 NSW SCT006 BKN018 QNH2988INS TX25/2619Z TN20/2709Z LAST NO
AMDS AFT 2622 NEXT 2809

Example: see airport list